Vidnoe — UBDU — position and weather

sailwx.info

Track history (hours):
 
Tides and Currents Weather Stations Pressure Air Temp Water Temp Dewpoint Dewpoint Depression Visibility Wind Speed Wind Dir Waves Ship Positions

Vidnoe

Last reported at 2017-Mar-26 01:31 UTC. Time now 2017-Mar-26 01:40 UTC.
Position N 59°58' E 027°00'.

Length 115 m; beam 17 m.

Type: Tanker. MMSI: 273516400.

Date/timePositionNaut miles runAvg speedWind from/ knotsBaromVisibWave heightAir tempDewpointWater temp
2017-Mar-26 01:31N 59°58' E 027°00'1212.1
2017-Mar-26 00:33N 59°59' E 026°37'10 9.9
2017-Mar-25 23:32N 59°50' E 026°31'1110.6
2017-Mar-25 22:30N 59°42' E 026°48'1111.9
2017-Mar-25 21:34N 59°37' E 027°08'1211.5
2017-Mar-25 20:33N 59°33' E 027°29'1010.3
2017-Mar-25 19:33N 59°26' E 027°44'1 0.5
2017-Mar-25 18:26N 59°25' E 027°44'0 0.0
2017-Mar-25 17:23N 59°25' E 027°44'0 0.0
2017-Mar-25 16:29N 59°25' E 027°44'0 0.0
2017-Mar-25 15:29N 59°25' E 027°44'0 0.0
2017-Mar-25 14:29N 59°25' E 027°44'0 0.0
2017-Mar-25 13:32N 59°25' E 027°44'0 0.0
2017-Mar-25 12:17N 59°25' E 027°44'0 0.0
2017-Mar-25 11:32N 59°25' E 027°44'0 0.0
2017-Mar-25 10:29N 59°25' E 027°44'0 0.0
2017-Mar-25 09:32N 59°25' E 027°44'0 0.0
2017-Mar-25 08:17N 59°25' E 027°44'0 0.0
2017-Mar-25 07:32N 59°25' E 027°44'0 0.0
2017-Mar-25 06:23N 59°25' E 027°44'0 0.0
2017-Mar-25 05:23N 59°25' E 027°44'0 0.0
2017-Mar-25 04:26N 59°25' E 027°44'0 0.0
2017-Mar-25 03:26N 59°25' E 027°44'0 0.0
2017-Mar-25 02:23N 59°25' E 027°44'0 0.0
2017-Mar-25 01:29N 59°25' E 027°44'0 0.0
2017-Mar-25 00:29N 59°25' E 027°44'0 0.0
2017-Mar-24 23:29N 59°25' E 027°44'0 0.0
2017-Mar-24 22:32N 59°25' E 027°44'0 0.0
2017-Mar-24 21:32N 59°25' E 027°44'0 0.0
2017-Mar-24 20:29N 59°25' E 027°44'0 0.0
2017-Mar-24 19:32N 59°25' E 027°44'0 0.0
2017-Mar-24 18:33N 59°25' E 027°44'4 4.2
2017-Mar-24 17:33N 59°30' E 027°43'0 0.1
2017-Mar-24 16:29N 59°30' E 027°43'0 0.0
2017-Mar-24 15:32N 59°30' E 027°43'1 0.6
2017-Mar-24 14:33N 59°29' E 027°43'10 9.8
2017-Mar-24 13:33N 59°33' E 027°26'3510.4
2017-Mar-24 10:08N 59°54' E 026°30'610.8
2017-Mar-24 09:33N 60°00' E 026°29'10 9.6
2017-Mar-24 08:33N 60°00' E 026°49'9 9.5
2017-Mar-24 07:33N 60°01' E 027°08'1010.0
2017-Mar-24 06:33N 60°06' E 027°25'1110.1
2017-Mar-24 05:28N 60°12' E 027°44'9 9.4
2017-Mar-24 04:33N 60°10' E 028°01'1010.1
2017-Mar-24 03:33N 60°07' E 028°20'1010.3
2017-Mar-24 02:33N 60°03' E 028°39'48 2.2
2017-Mar-23 04:32N 59°53' E 030°13'0 0.0
2017-Mar-23 03:32N 59°53' E 030°13'0 0.0
2017-Mar-23 02:32N 59°53' E 030°13'0 0.0
2017-Mar-23 01:32N 59°53' E 030°13'0 0.0
2017-Mar-23 00:32N 59°53' E 030°13'0 0.0
2017-Mar-22 23:32N 59°53' E 030°13'0 0.0
2017-Mar-22 22:32N 59°53' E 030°13'0 0.0
2017-Mar-22 21:32N 59°53' E 030°13'0 0.0
2017-Mar-22 20:32N 59°53' E 030°13'0 0.0
2017-Mar-22 19:32N 59°53' E 030°13'0 0.0
2017-Mar-22 18:32N 59°53' E 030°13'0 0.0
2017-Mar-22 17:32N 59°53' E 030°13'0 0.0
2017-Mar-22 16:33N 59°53' E 030°13'4 4.0
2017-Mar-22 15:33N 59°54' E 030°06'10 9.8
2017-Mar-22 14:34N 59°58' E 029°48'1210.5
2017-Mar-22 13:28N 60°01' E 029°26'910.0
2017-Mar-22 12:31N 60°02' E 029°07'1010.4
2017-Mar-22 11:33N 60°02' E 028°47'1212.4
2017-Mar-22 10:34N 60°04' E 028°23'1212.5
2017-Mar-22 09:33N 60°09' E 028°00'1212.4
2017-Mar-22 08:33N 60°07' E 027°35'1413.7
2017-Mar-22 07:33N 59°60' E 027°12'1212.1
2017-Mar-22 06:33N 59°59' E 026°48'1010.3
2017-Mar-22 05:33N 59°54' E 026°30'1510.7
2017-Mar-22 04:08N 59°42' E 026°48'711.2
2017-Mar-22 03:31N 59°39' E 027°00'1212.0
2017-Mar-22 02:33N 59°35' E 027°21'1211.9
2017-Mar-22 01:33N 59°28' E 027°41'3 3.2
2017-Mar-22 00:33N 59°25' E 027°44'0 0.0
2017-Mar-21 23:29N 59°25' E 027°44'0 0.0
2017-Mar-21 22:32N 59°25' E 027°44'0 0.0
2017-Mar-21 21:32N 59°25' E 027°44'0 0.0
2017-Mar-21 20:20N 59°25' E 027°44'0 0.0
2017-Mar-21 19:32N 59°25' E 027°44'0 0.0
2017-Mar-21 18:23N 59°25' E 027°44'0 0.0
2017-Mar-21 17:23N 59°25' E 027°44'0 0.0
2017-Mar-21 16:26N 59°25' E 027°44'0 0.0
2017-Mar-21 15:23N 59°25' E 027°44'0 0.0
2017-Mar-21 14:23N 59°25' E 027°44'0 0.0
2017-Mar-21 13:29N 59°25' E 027°44'0 0.0
2017-Mar-21 12:29N 59°25' E 027°44'0 0.0
2017-Mar-21 11:32N 59°25' E 027°44'0 0.0
2017-Mar-21 10:29N 59°25' E 027°44'0 0.0
2017-Mar-21 09:32N 59°25' E 027°44'0 0.0
2017-Mar-21 08:32N 59°25' E 027°44'0 0.0
2017-Mar-21 07:32N 59°25' E 027°44'0 0.0
2017-Mar-21 06:23N 59°25' E 027°44'0 0.0
2017-Mar-21 05:32N 59°25' E 027°44'0 0.0
2017-Mar-21 04:23N 59°25' E 027°44'0 0.0
2017-Mar-21 03:23N 59°25' E 027°44'0 0.0
2017-Mar-21 02:26N 59°25' E 027°44'0 0.0
2017-Mar-21 01:23N 59°25' E 027°44'0 0.0
2017-Mar-21 00:14N 59°25' E 027°44'0 0.0
2017-Mar-20 23:29N 59°25' E 027°44'0 0.3
2017-Mar-20 22:33N 59°26' E 027°45'4 4.1
2017-Mar-20 21:33N 59°30' E 027°44'0 0.1
2017-Mar-20 20:26N 59°30' E 027°44'0 0.0
2017-Mar-20 19:26N 59°30' E 027°44'0 0.0
2017-Mar-20 18:26N 59°30' E 027°44'0 0.0
2017-Mar-20 17:29N 59°30' E 027°44'0 0.0
2017-Mar-20 16:29N 59°30' E 027°44'0 0.0
2017-Mar-20 15:29N 59°30' E 027°44'0 0.0
2017-Mar-20 14:32N 59°30' E 027°44'0 0.0
2017-Mar-20 13:32N 59°30' E 027°44'0 0.0
2017-Mar-20 12:32N 59°30' E 027°44'7 7.5
2017-Mar-20 11:33N 59°32' E 027°30'1110.9
2017-Mar-20 10:33N 59°37' E 027°10'1211.1
2017-Mar-20 09:27N 59°42' E 026°49'13 9.9
2017-Mar-20 08:08N 59°51' E 026°31'610.8
2017-Mar-20 07:33N 59°57' E 026°28'8 8.4
2017-Mar-20 06:33N 60°00' E 026°44'1110.8
2017-Mar-20 05:33N 60°00' E 027°06'1111.2
2017-Mar-20 04:33N 60°06' E 027°25'1111.1
2017-Mar-20 03:33N 60°12' E 027°44'1110.9
2017-Mar-20 02:33N 60°09' E 028°05'1110.7
2017-Mar-20 01:33N 60°05' E 028°25'1110.8
2017-Mar-20 00:33N 60°03' E 028°46'2210.0
2017-Mar-19 22:21N 60°02' E 029°30'910.9
2017-Mar-19 21:33N 59°59' E 029°46'1110.6
2017-Mar-19 20:33N 59°54' E 030°05'4 4.2
2017-Mar-19 19:33N 59°53' E 030°13'0 0.1
2017-Mar-19 18:32N 59°53' E 030°13'0 0.0
2017-Mar-19 17:32N 59°53' E 030°13'0 0.0
2017-Mar-19 16:32N 59°53' E 030°13'0 0.0
2017-Mar-19 15:32N 59°53' E 030°13'0 0.0
2017-Mar-19 14:32N 59°53' E 030°13'0 0.0
2017-Mar-19 13:32N 59°53' E 030°13'0 0.0
2017-Mar-19 12:32N 59°53' E 030°13'0 0.0
2017-Mar-19 11:32N 59°53' E 030°13'0 0.0
2017-Mar-19 10:32N 59°53' E 030°13'0 0.0
2017-Mar-19 09:32N 59°53' E 030°13'0 0.0
2017-Mar-19 08:32N 59°53' E 030°13'0 0.0
2017-Mar-19 07:32N 59°53' E 030°13'0 0.0
2017-Mar-19 06:33N 59°53' E 030°13'0 0.0
2017-Mar-19 05:32N 59°53' E 030°13'0 0.0
2017-Mar-19 04:32N 59°53' E 030°13'0 0.0
2017-Mar-19 03:32N 59°53' E 030°13'0 0.0
2017-Mar-19 02:32N 59°53' E 030°13'0 0.0
2017-Mar-19 01:32N 59°53' E 030°13'0 0.0
2017-Mar-19 00:32N 59°53' E 030°13'0 0.0
2017-Mar-18 23:32N 59°53' E 030°13'0 0.0
2017-Mar-18 22:29N 59°53' E 030°13'0 0.0
2017-Mar-18 21:32N 59°53' E 030°13'0 0.0
2017-Mar-18 20:32N 59°53' E 030°13'0 0.0
2017-Mar-18 19:32N 59°53' E 030°13'0 0.0
2017-Mar-18 18:32N 59°53' E 030°13'0 0.0
2017-Mar-18 17:32N 59°53' E 030°13'0 0.0
2017-Mar-18 16:32N 59°53' E 030°13'0 0.0
2017-Mar-18 15:32N 59°53' E 030°13'0 0.0
2017-Mar-18 14:32N 59°53' E 030°13'0 0.0
2017-Mar-18 13:32N 59°53' E 030°13'0 0.0
2017-Mar-18 12:32N 59°53' E 030°13'0 0.0
2017-Mar-18 11:32N 59°53' E 030°13'0 0.0
2017-Mar-18 10:32N 59°53' E 030°13'0 0.0
2017-Mar-18 09:32N 59°53' E 030°13'0 0.0
2017-Mar-18 08:33N 59°53' E 030°13'4 4.3
2017-Mar-18 07:33N 59°54' E 030°05'10 9.6
2017-Mar-18 06:33N 59°58' E 029°48'19 9.3
2017-Mar-18 04:32N 60°02' E 029°11'1111.5
2017-Mar-18 03:33N 60°02' E 028°48'1212.1
2017-Mar-18 02:33N 60°04' E 028°24'1110.7
2017-Mar-18 01:34N 60°09' E 028°05'1111.4
2017-Mar-18 00:33N 60°09' E 027°42'1211.9
2017-Mar-17 23:31N 60°03' E 027°20'1411.4
2017-Mar-17 22:19N 59°58' E 026°54'911.6
2017-Mar-17 21:33N 59°59' E 026°37'10 9.7
2017-Mar-17 20:32N 59°49' E 026°31'2211.2
2017-Mar-17 18:32N 59°37' E 027°08'1111.5
2017-Mar-17 17:33N 59°32' E 027°28'1010.4
2017-Mar-17 16:33N 59°26' E 027°44'0 0.3
2017-Mar-17 15:34N 59°25' E 027°44'0 0.0
2017-Mar-17 14:26N 59°25' E 027°44'0 0.0
2017-Mar-17 13:26N 59°25' E 027°44'0 0.0
2017-Mar-17 12:29N 59°25' E 027°44'0 0.0
2017-Mar-17 11:14N 59°25' E 027°44'0 0.0
2017-Mar-17 10:26N 59°25' E 027°44'0 0.0
2017-Mar-17 09:32N 59°25' E 027°44'0 0.0
2017-Mar-17 08:32N 59°25' E 027°44'0 0.0
2017-Mar-17 07:32N 59°25' E 027°44'0 0.0
2017-Mar-17 06:32N 59°25' E 027°44'0 0.0
2017-Mar-17 05:32N 59°25' E 027°44'0 0.0
2017-Mar-17 04:32N 59°25' E 027°44'0 0.0
2017-Mar-17 03:23N 59°25' E 027°44'0 0.0
2017-Mar-17 02:23N 59°25' E 027°44'0 0.0
2017-Mar-17 01:23N 59°25' E 027°44'0 0.0
2017-Mar-17 00:26N 59°25' E 027°44'0 0.0
2017-Mar-16 23:23N 59°25' E 027°44'0 0.0
2017-Mar-16 22:29N 59°25' E 027°44'0 0.0
2017-Mar-16 21:29N 59°25' E 027°44'0 0.0
2017-Mar-16 20:29N 59°25' E 027°44'0 0.0
2017-Mar-16 19:32N 59°25' E 027°44'0 0.0
2017-Mar-16 18:32N 59°25' E 027°44'0 0.0
2017-Mar-16 17:32N 59°25' E 027°44'0 0.0
2017-Mar-16 16:29N 59°25' E 027°44'0 0.0
2017-Mar-16 15:32N 59°25' E 027°44'0 0.0
2017-Mar-16 14:32N 59°25' E 027°44'0 0.0
2017-Mar-16 13:23N 59°25' E 027°44'0 0.0
2017-Mar-16 12:23N 59°25' E 027°44'0 0.2
2017-Mar-16 11:33N 59°26' E 027°45'4 3.8
2017-Mar-16 10:34N 59°29' E 027°43'0 0.0
2017-Mar-16 09:32N 59°29' E 027°43'0 0.0
2017-Mar-16 08:32N 59°29' E 027°43'0 0.0
2017-Mar-16 07:32N 59°29' E 027°43'0 0.0
2017-Mar-16 06:32N 59°29' E 027°43'0 0.0
2017-Mar-16 05:23N 59°29' E 027°43'0 0.0
2017-Mar-16 04:23N 59°29' E 027°43'0 0.0
2017-Mar-16 03:23N 59°29' E 027°43'0 0.0
2017-Mar-16 02:26N 59°29' E 027°43'  
Track history (hours):
 
Tides and Currents Weather Stations Pressure Air Temp Water Temp Dewpoint Dewpoint Depression Visibility Wind Speed Wind Dir Waves Ship Positions

Vidnoe

Last reported at 2017-Mar-26 01:31 UTC. Time now 2017-Mar-26 01:40 UTC.
Position N 59°58' E 027°00'.

Length 115 m; beam 17 m.

Type: Tanker. MMSI: 273516400.

Date/timePositionNaut miles runAvg speedWind from/ knotsBaromVisibWave heightAir tempDewpointWater temp
2017-Mar-26 01:31N 59°58' E 027°00'1212.1
2017-Mar-26 00:33N 59°59' E 026°37'10 9.9
2017-Mar-25 23:32N 59°50' E 026°31'1110.6
2017-Mar-25 22:30N 59°42' E 026°48'1111.9
2017-Mar-25 21:34N 59°37' E 027°08'1211.5
2017-Mar-25 20:33N 59°33' E 027°29'1010.3
2017-Mar-25 19:33N 59°26' E 027°44'1 0.5
2017-Mar-25 18:26N 59°25' E 027°44'0 0.0
2017-Mar-25 17:23N 59°25' E 027°44'0 0.0
2017-Mar-25 16:29N 59°25' E 027°44'0 0.0
2017-Mar-25 15:29N 59°25' E 027°44'0 0.0
2017-Mar-25 14:29N 59°25' E 027°44'0 0.0
2017-Mar-25 13:32N 59°25' E 027°44'0 0.0
2017-Mar-25 12:17N 59°25' E 027°44'0 0.0
2017-Mar-25 11:32N 59°25' E 027°44'0 0.0
2017-Mar-25 10:29N 59°25' E 027°44'0 0.0
2017-Mar-25 09:32N 59°25' E 027°44'0 0.0
2017-Mar-25 08:17N 59°25' E 027°44'0 0.0
2017-Mar-25 07:32N 59°25' E 027°44'0 0.0
2017-Mar-25 06:23N 59°25' E 027°44'0 0.0
2017-Mar-25 05:23N 59°25' E 027°44'0 0.0
2017-Mar-25 04:26N 59°25' E 027°44'0 0.0
2017-Mar-25 03:26N 59°25' E 027°44'0 0.0
2017-Mar-25 02:23N 59°25' E 027°44'0 0.0
2017-Mar-25 01:29N 59°25' E 027°44'0 0.0
2017-Mar-25 00:29N 59°25' E 027°44'0 0.0
2017-Mar-24 23:29N 59°25' E 027°44'0 0.0
2017-Mar-24 22:32N 59°25' E 027°44'0 0.0
2017-Mar-24 21:32N 59°25' E 027°44'0 0.0
2017-Mar-24 20:29N 59°25' E 027°44'0 0.0
2017-Mar-24 19:32N 59°25' E 027°44'0 0.0
2017-Mar-24 18:33N 59°25' E 027°44'4 4.2
2017-Mar-24 17:33N 59°30' E 027°43'0 0.1
2017-Mar-24 16:29N 59°30' E 027°43'0 0.0
2017-Mar-24 15:32N 59°30' E 027°43'1 0.6
2017-Mar-24 14:33N 59°29' E 027°43'10 9.8
2017-Mar-24 13:33N 59°33' E 027°26'3510.4
2017-Mar-24 10:08N 59°54' E 026°30'610.8
2017-Mar-24 09:33N 60°00' E 026°29'10 9.6
2017-Mar-24 08:33N 60°00' E 026°49'9 9.5
2017-Mar-24 07:33N 60°01' E 027°08'1010.0
2017-Mar-24 06:33N 60°06' E 027°25'1110.1
2017-Mar-24 05:28N 60°12' E 027°44'9 9.4
2017-Mar-24 04:33N 60°10' E 028°01'1010.1
2017-Mar-24 03:33N 60°07' E 028°20'1010.3
2017-Mar-24 02:33N 60°03' E 028°39'48 2.2
2017-Mar-23 04:32N 59°53' E 030°13'0 0.0
2017-Mar-23 03:32N 59°53' E 030°13'0 0.0
2017-Mar-23 02:32N 59°53' E 030°13'0 0.0
2017-Mar-23 01:32N 59°53' E 030°13'0 0.0
2017-Mar-23 00:32N 59°53' E 030°13'0 0.0
2017-Mar-22 23:32N 59°53' E 030°13'0 0.0
2017-Mar-22 22:32N 59°53' E 030°13'0 0.0
2017-Mar-22 21:32N 59°53' E 030°13'0 0.0
2017-Mar-22 20:32N 59°53' E 030°13'0 0.0
2017-Mar-22 19:32N 59°53' E 030°13'0 0.0
2017-Mar-22 18:32N 59°53' E 030°13'0 0.0
2017-Mar-22 17:32N 59°53' E 030°13'0 0.0
2017-Mar-22 16:33N 59°53' E 030°13'4 4.0
2017-Mar-22 15:33N 59°54' E 030°06'10 9.8
2017-Mar-22 14:34N 59°58' E 029°48'1210.5
2017-Mar-22 13:28N 60°01' E 029°26'910.0
2017-Mar-22 12:31N 60°02' E 029°07'1010.4
2017-Mar-22 11:33N 60°02' E 028°47'1212.4
2017-Mar-22 10:34N 60°04' E 028°23'1212.5
2017-Mar-22 09:33N 60°09' E 028°00'1212.4
2017-Mar-22 08:33N 60°07' E 027°35'1413.7
2017-Mar-22 07:33N 59°60' E 027°12'1212.1
2017-Mar-22 06:33N 59°59' E 026°48'1010.3
2017-Mar-22 05:33N 59°54' E 026°30'1510.7
2017-Mar-22 04:08N 59°42' E 026°48'711.2
2017-Mar-22 03:31N 59°39' E 027°00'1212.0
2017-Mar-22 02:33N 59°35' E 027°21'1211.9
2017-Mar-22 01:33N 59°28' E 027°41'3 3.2
2017-Mar-22 00:33N 59°25' E 027°44'0 0.0
2017-Mar-21 23:29N 59°25' E 027°44'0 0.0
2017-Mar-21 22:32N 59°25' E 027°44'0 0.0
2017-Mar-21 21:32N 59°25' E 027°44'0 0.0
2017-Mar-21 20:20N 59°25' E 027°44'0 0.0
2017-Mar-21 19:32N 59°25' E 027°44'0 0.0
2017-Mar-21 18:23N 59°25' E 027°44'0 0.0
2017-Mar-21 17:23N 59°25' E 027°44'0 0.0
2017-Mar-21 16:26N 59°25' E 027°44'0 0.0
2017-Mar-21 15:23N 59°25' E 027°44'0 0.0
2017-Mar-21 14:23N 59°25' E 027°44'0 0.0
2017-Mar-21 13:29N 59°25' E 027°44'0 0.0
2017-Mar-21 12:29N 59°25' E 027°44'0 0.0
2017-Mar-21 11:32N 59°25' E 027°44'0 0.0
2017-Mar-21 10:29N 59°25' E 027°44'0 0.0
2017-Mar-21 09:32N 59°25' E 027°44'0 0.0
2017-Mar-21 08:32N 59°25' E 027°44'0 0.0
2017-Mar-21 07:32N 59°25' E 027°44'0 0.0
2017-Mar-21 06:23N 59°25' E 027°44'0 0.0
2017-Mar-21 05:32N 59°25' E 027°44'0 0.0
2017-Mar-21 04:23N 59°25' E 027°44'0 0.0
2017-Mar-21 03:23N 59°25' E 027°44'0 0.0
2017-Mar-21 02:26N 59°25' E 027°44'0 0.0
2017-Mar-21 01:23N 59°25' E 027°44'0 0.0
2017-Mar-21 00:14N 59°25' E 027°44'0 0.0
2017-Mar-20 23:29N 59°25' E 027°44'0 0.3
2017-Mar-20 22:33N 59°26' E 027°45'4 4.1
2017-Mar-20 21:33N 59°30' E 027°44'0 0.1
2017-Mar-20 20:26N 59°30' E 027°44'0 0.0
2017-Mar-20 19:26N 59°30' E 027°44'0 0.0
2017-Mar-20 18:26N 59°30' E 027°44'0 0.0
2017-Mar-20 17:29N 59°30' E 027°44'0 0.0
2017-Mar-20 16:29N 59°30' E 027°44'0 0.0
2017-Mar-20 15:29N 59°30' E 027°44'0 0.0
2017-Mar-20 14:32N 59°30' E 027°44'0 0.0
2017-Mar-20 13:32N 59°30' E 027°44'0 0.0
2017-Mar-20 12:32N 59°30' E 027°44'7 7.5
2017-Mar-20 11:33N 59°32' E 027°30'1110.9
2017-Mar-20 10:33N 59°37' E 027°10'1211.1
2017-Mar-20 09:27N 59°42' E 026°49'13 9.9
2017-Mar-20 08:08N 59°51' E 026°31'610.8
2017-Mar-20 07:33N 59°57' E 026°28'8 8.4
2017-Mar-20 06:33N 60°00' E 026°44'1110.8
2017-Mar-20 05:33N 60°00' E 027°06'1111.2
2017-Mar-20 04:33N 60°06' E 027°25'1111.1
2017-Mar-20 03:33N 60°12' E 027°44'1110.9
2017-Mar-20 02:33N 60°09' E 028°05'1110.7
2017-Mar-20 01:33N 60°05' E 028°25'1110.8
2017-Mar-20 00:33N 60°03' E 028°46'2210.0
2017-Mar-19 22:21N 60°02' E 029°30'910.9
2017-Mar-19 21:33N 59°59' E 029°46'1110.6
2017-Mar-19 20:33N 59°54' E 030°05'4 4.2
2017-Mar-19 19:33N 59°53' E 030°13'0 0.1
2017-Mar-19 18:32N 59°53' E 030°13'0 0.0
2017-Mar-19 17:32N 59°53' E 030°13'0 0.0
2017-Mar-19 16:32N 59°53' E 030°13'0 0.0
2017-Mar-19 15:32N 59°53' E 030°13'0 0.0
2017-Mar-19 14:32N 59°53' E 030°13'0 0.0
2017-Mar-19 13:32N 59°53' E 030°13'0 0.0
2017-Mar-19 12:32N 59°53' E 030°13'0 0.0
2017-Mar-19 11:32N 59°53' E 030°13'0 0.0
2017-Mar-19 10:32N 59°53' E 030°13'0 0.0
2017-Mar-19 09:32N 59°53' E 030°13'0 0.0
2017-Mar-19 08:32N 59°53' E 030°13'0 0.0
2017-Mar-19 07:32N 59°53' E 030°13'0 0.0
2017-Mar-19 06:33N 59°53' E 030°13'0 0.0
2017-Mar-19 05:32N 59°53' E 030°13'0 0.0
2017-Mar-19 04:32N 59°53' E 030°13'0 0.0
2017-Mar-19 03:32N 59°53' E 030°13'0 0.0
2017-Mar-19 02:32N 59°53' E 030°13'0 0.0
2017-Mar-19 01:32N 59°53' E 030°13'0 0.0
2017-Mar-19 00:32N 59°53' E 030°13'0 0.0
2017-Mar-18 23:32N 59°53' E 030°13'0 0.0
2017-Mar-18 22:29N 59°53' E 030°13'0 0.0
2017-Mar-18 21:32N 59°53' E 030°13'0 0.0
2017-Mar-18 20:32N 59°53' E 030°13'0 0.0
2017-Mar-18 19:32N 59°53' E 030°13'0 0.0
2017-Mar-18 18:32N 59°53' E 030°13'0 0.0
2017-Mar-18 17:32N 59°53' E 030°13'0 0.0
2017-Mar-18 16:32N 59°53' E 030°13'0 0.0
2017-Mar-18 15:32N 59°53' E 030°13'0 0.0
2017-Mar-18 14:32N 59°53' E 030°13'0 0.0
2017-Mar-18 13:32N 59°53' E 030°13'0 0.0
2017-Mar-18 12:32N 59°53' E 030°13'0 0.0
2017-Mar-18 11:32N 59°53' E 030°13'0 0.0
2017-Mar-18 10:32N 59°53' E 030°13'0 0.0
2017-Mar-18 09:32N 59°53' E 030°13'0 0.0
2017-Mar-18 08:33N 59°53' E 030°13'4 4.3
2017-Mar-18 07:33N 59°54' E 030°05'10 9.6
2017-Mar-18 06:33N 59°58' E 029°48'19 9.3
2017-Mar-18 04:32N 60°02' E 029°11'1111.5
2017-Mar-18 03:33N 60°02' E 028°48'1212.1
2017-Mar-18 02:33N 60°04' E 028°24'1110.7
2017-Mar-18 01:34N 60°09' E 028°05'1111.4
2017-Mar-18 00:33N 60°09' E 027°42'1211.9
2017-Mar-17 23:31N 60°03' E 027°20'1411.4
2017-Mar-17 22:19N 59°58' E 026°54'911.6
2017-Mar-17 21:33N 59°59' E 026°37'10 9.7
2017-Mar-17 20:32N 59°49' E 026°31'2211.2
2017-Mar-17 18:32N 59°37' E 027°08'1111.5
2017-Mar-17 17:33N 59°32' E 027°28'1010.4
2017-Mar-17 16:33N 59°26' E 027°44'0 0.3
2017-Mar-17 15:34N 59°25' E 027°44'0 0.0
2017-Mar-17 14:26N 59°25' E 027°44'0 0.0
2017-Mar-17 13:26N 59°25' E 027°44'0 0.0
2017-Mar-17 12:29N 59°25' E 027°44'0 0.0
2017-Mar-17 11:14N 59°25' E 027°44'0 0.0
2017-Mar-17 10:26N 59°25' E 027°44'0 0.0
2017-Mar-17 09:32N 59°25' E 027°44'0 0.0
2017-Mar-17 08:32N 59°25' E 027°44'0 0.0
2017-Mar-17 07:32N 59°25' E 027°44'0 0.0
2017-Mar-17 06:32N 59°25' E 027°44'0 0.0
2017-Mar-17 05:32N 59°25' E 027°44'0 0.0
2017-Mar-17 04:32N 59°25' E 027°44'0 0.0
2017-Mar-17 03:23N 59°25' E 027°44'0 0.0
2017-Mar-17 02:23N 59°25' E 027°44'0 0.0
2017-Mar-17 01:23N 59°25' E 027°44'0 0.0
2017-Mar-17 00:26N 59°25' E 027°44'0 0.0
2017-Mar-16 23:23N 59°25' E 027°44'0 0.0
2017-Mar-16 22:29N 59°25' E 027°44'0 0.0
2017-Mar-16 21:29N 59°25' E 027°44'0 0.0
2017-Mar-16 20:29N 59°25' E 027°44'0 0.0
2017-Mar-16 19:32N 59°25' E 027°44'0 0.0
2017-Mar-16 18:32N 59°25' E 027°44'0 0.0
2017-Mar-16 17:32N 59°25' E 027°44'0 0.0
2017-Mar-16 16:29N 59°25' E 027°44'0 0.0
2017-Mar-16 15:32N 59°25' E 027°44'0 0.0
2017-Mar-16 14:32N 59°25' E 027°44'0 0.0
2017-Mar-16 13:23N 59°25' E 027°44'0 0.0
2017-Mar-16 12:23N 59°25' E 027°44'0 0.2
2017-Mar-16 11:33N 59°26' E 027°45'4 3.8
2017-Mar-16 10:34N 59°29' E 027°43'0 0.0
2017-Mar-16 09:32N 59°29' E 027°43'0 0.0
2017-Mar-16 08:32N 59°29' E 027°43'0 0.0
2017-Mar-16 07:32N 59°29' E 027°43'0 0.0
2017-Mar-16 06:32N 59°29' E 027°43'0 0.0
2017-Mar-16 05:23N 59°29' E 027°43'0 0.0
2017-Mar-16 04:23N 59°29' E 027°43'0 0.0
2017-Mar-16 03:23N 59°29' E 027°43'0 0.0
2017-Mar-16 02:26N 59°29' E 027°43'  

Dump ship's entire track history